Trans Africa — 9HA4723 — position and weather

sailwx.info

Track history (hours):
 
Tides and Currents Weather Stations Pressure Air Temp Water Temp Dewpoint Dewpoint Depression Visibility Wind Speed Wind Dir Waves Ship Positions

Trans Africa

Last reported at 2018-Apr-20 03:00 UTC. Time now 2018-Apr-20 03:01 UTC.
Position N 51°09' E 003°47'.

Length 229 m; draft 8.8 m.

Type: Cargo ship. MMSI: 248614000.

Date/timePositionNaut miles runAvg speedWind from/ knotsBaromVisibWave heightAir tempDewpointWater temp
2018-Apr-20 03:00N 51°09' E 003°47'0 0.0
2018-Apr-20 02:30N 51°09' E 003°47'0 0.0
2018-Apr-20 02:00N 51°09' E 003°47'0 0.0
2018-Apr-20 01:30N 51°09' E 003°47'0 0.0
2018-Apr-20 01:00N 51°09' E 003°47'0 0.0
2018-Apr-20 00:24N 51°09' E 003°47'0 0.0
2018-Apr-20 00:00N 51°09' E 003°47'0 0.0
2018-Apr-19 23:27N 51°09' E 003°47'0 0.0
2018-Apr-19 22:54N 51°09' E 003°47'0 0.0
2018-Apr-19 22:27N 51°09' E 003°47'0 0.0
2018-Apr-19 22:00N 51°09' E 003°47'0 0.0
2018-Apr-19 21:30N 51°09' E 003°47'0 0.0
2018-Apr-19 20:57N 51°09' E 003°47'0 0.0
2018-Apr-19 20:30N 51°09' E 003°47'0 0.0
2018-Apr-19 20:00N 51°09' E 003°47'0 0.0
2018-Apr-19 19:27N 51°09' E 003°47'0 0.0
2018-Apr-19 18:57N 51°09' E 003°47'0 0.0
2018-Apr-19 18:24N 51°09' E 003°47'0 0.0
2018-Apr-19 17:54N 51°09' E 003°47'0 0.0
2018-Apr-19 17:30N 51°09' E 003°47'0 0.0
2018-Apr-19 16:57N 51°09' E 003°47'0 0.0
2018-Apr-19 16:30N 51°09' E 003°47'0 0.0
2018-Apr-19 16:00N 51°09' E 003°47'0 0.0
2018-Apr-19 15:21N 51°09' E 003°47'0 0.0
2018-Apr-19 14:45N 51°09' E 003°47'0 0.0
2018-Apr-19 14:21N 51°09' E 003°47'0 0.0
2018-Apr-19 13:51N 51°09' E 003°47'0 0.0
2018-Apr-19 13:27N 51°09' E 003°47'0 0.0
2018-Apr-19 12:57N 51°09' E 003°47'0 0.0
2018-Apr-19 12:30N 51°09' E 003°47'0 0.0
2018-Apr-19 12:00N 51°09' E 003°47'0 0.0
2018-Apr-19 11:30N 51°09' E 003°47'0 0.0
2018-Apr-19 11:00N 51°09' E 003°47'0 0.0
2018-Apr-19 10:27N 51°09' E 003°47'0 0.0
2018-Apr-19 10:00N 51°09' E 003°47'0 0.0
2018-Apr-19 09:30N 51°09' E 003°47'0 0.0
2018-Apr-19 09:00N 51°09' E 003°47'0 0.0
2018-Apr-19 08:30N 51°09' E 003°47'0 0.0
2018-Apr-19 08:00N 51°09' E 003°47'0 0.0
2018-Apr-19 07:24N 51°09' E 003°47'0 0.0
2018-Apr-19 07:00N 51°09' E 003°47'0 0.0
2018-Apr-19 06:30N 51°09' E 003°47'0 0.0
2018-Apr-19 06:00N 51°09' E 003°47'0 0.0
2018-Apr-19 05:30N 51°09' E 003°47'0 0.0
2018-Apr-19 05:00N 51°09' E 003°47'0 0.0
2018-Apr-19 04:30N 51°09' E 003°47'0 0.0
2018-Apr-19 04:00N 51°09' E 003°47'0 0.0
2018-Apr-19 03:27N 51°09' E 003°47'0 0.0
2018-Apr-19 03:00N 51°09' E 003°47'0 0.0
2018-Apr-19 02:30N 51°09' E 003°47'0 0.0
2018-Apr-19 02:00N 51°09' E 003°47'0 0.0
2018-Apr-19 01:30N 51°09' E 003°47'0 0.1
2018-Apr-19 01:00N 51°09' E 003°47'1 2.3
2018-Apr-19 00:30N 51°10' E 003°48'3 5.9
2018-Apr-19 00:00N 51°13' E 003°48'3 6.1
2018-Apr-18 23:30N 51°16' E 003°50'3 5.8
2018-Apr-18 23:01N 51°19' E 003°50'1 2.0
2018-Apr-18 22:30N 51°20' E 003°49'0 0.6
2018-Apr-18 22:00N 51°20' E 003°49'0 0.2
2018-Apr-18 21:30N 51°20' E 003°49'2 4.9
2018-Apr-18 21:00N 51°22' E 003°46'5 9.7
2018-Apr-18 20:30N 51°26' E 003°41'5 9.2
2018-Apr-18 20:00N 51°26' E 003°34'3 4.6
2018-Apr-18 19:28N 51°25' E 003°30'4 8.6
2018-Apr-18 19:00N 51°24' E 003°24'5 9.8
2018-Apr-18 18:30N 51°25' E 003°16'510.9
2018-Apr-18 18:00N 51°24' E 003°07'611.2
2018-Apr-18 17:30N 51°23' E 002°58'612.5
2018-Apr-18 17:00N 51°22' E 002°48'510.8
2018-Apr-18 16:30N 51°22' E 002°40'4 7.9
2018-Apr-18 16:00N 51°22' E 002°34'713.1
2018-Apr-18 15:30N 51°20' E 002°24'714.1
2018-Apr-18 15:00N 51°18' E 002°13'714.4
2018-Apr-18 14:30N 51°14' E 002°04'714.7
2018-Apr-18 14:00N 51°10' E 001°54'714.7
2018-Apr-18 13:30N 51°05' E 001°45'510.7
2018-Apr-18 13:00N 51°03' E 001°53'511.0
2018-Apr-18 12:30N 51°03' E 002°02'611.3
2018-Apr-18 11:58N 51°03' E 002°11'511.4
2018-Apr-18 11:30N 51°04' E 002°20'1 1.5
2018-Apr-18 10:59N 51°03' E 002°20'0 0.6
2018-Apr-18 10:30N 51°03' E 002°20'0 0.6
2018-Apr-18 10:00N 51°03' E 002°19'0 0.0
2018-Apr-18 09:21N 51°03' E 002°19'0 0.0
2018-Apr-18 08:54N 51°03' E 002°19'0 0.0
2018-Apr-18 08:15N 51°03' E 002°19'0 0.0
2018-Apr-18 08:00N 51°03' E 002°19'0 0.0
2018-Apr-18 07:30N 51°03' E 002°19'0 0.0
2018-Apr-18 07:00N 51°03' E 002°19'0 0.0
2018-Apr-18 06:15N 51°03' E 002°19'0 0.0
2018-Apr-18 06:00N 51°03' E 002°19'0 0.0
2018-Apr-18 05:18N 51°03' E 002°19'0 0.0
2018-Apr-18 04:21N 51°03' E 002°19'0 0.0
2018-Apr-18 03:54N 51°03' E 002°19'0 0.0
2018-Apr-18 03:21N 51°03' E 002°19'0 0.0
2018-Apr-18 02:57N 51°03' E 002°19'0 0.0
2018-Apr-18 02:24N 51°03' E 002°19'0 0.0
2018-Apr-18 01:45N 51°03' E 002°19'0 0.0
2018-Apr-18 01:24N 51°03' E 002°19'0 0.0
2018-Apr-18 00:51N 51°03' E 002°19'0 0.4
2018-Apr-17 23:36N 51°03' E 002°19'0 0.0
2018-Apr-17 23:28N 51°03' E 002°19'0 0.0
2018-Apr-17 22:55N 51°03' E 002°19'0 0.0
2018-Apr-17 21:45N 51°03' E 002°19'0 0.0
2018-Apr-17 21:12N 51°03' E 002°19'0 0.0
2018-Apr-17 20:48N 51°03' E 002°19'0 0.0
2018-Apr-17 20:18N 51°03' E 002°19'0 0.0
2018-Apr-17 19:45N 51°03' E 002°19'0 0.0
2018-Apr-17 18:54N 51°03' E 002°19'0 0.0
2018-Apr-17 18:30N 51°03' E 002°19'0 0.0
2018-Apr-17 18:00N 51°03' E 002°19'0 0.0
2018-Apr-17 17:30N 51°03' E 002°19'0 0.0
2018-Apr-17 16:21N 51°03' E 002°19'0 0.0
2018-Apr-17 16:00N 51°03' E 002°19'0 0.0
2018-Apr-17 15:13N 51°03' E 002°19'0 0.0
2018-Apr-17 14:54N 51°03' E 002°19'0 0.0
2018-Apr-17 14:30N 51°03' E 002°19'0 0.0
2018-Apr-17 13:48N 51°03' E 002°19'0 0.0
2018-Apr-17 13:24N 51°03' E 002°19'0 0.0
2018-Apr-17 12:54N 51°03' E 002°19'0 0.0
2018-Apr-17 12:24N 51°03' E 002°19'0 0.0
2018-Apr-17 10:27N 51°03' E 002°19'0 0.0
2018-Apr-17 09:58N 51°03' E 002°19'0 0.0
2018-Apr-17 09:30N 51°03' E 002°19'0 0.0
2018-Apr-17 08:54N 51°03' E 002°19'0 0.0
2018-Apr-17 08:27N 51°03' E 002°19'0 0.0
2018-Apr-17 08:00N 51°03' E 002°19'0 0.0
2018-Apr-17 07:21N 51°03' E 002°19'0 0.0
2018-Apr-17 07:00N 51°03' E 002°19'0 0.0
2018-Apr-17 06:30N 51°03' E 002°19'0 0.0
2018-Apr-17 06:00N 51°03' E 002°19'0 0.0
2018-Apr-17 05:24N 51°03' E 002°19'0 0.0
2018-Apr-17 04:48N 51°03' E 002°19'0 0.0
2018-Apr-17 04:30N 51°03' E 002°19'0 0.0
2018-Apr-17 03:00N 51°03' E 002°19'0 0.0
2018-Apr-17 01:54N 51°03' E 002°19'0 0.0
2018-Apr-17 01:24N 51°03' E 002°19'0 0.0
2018-Apr-17 01:00N 51°03' E 002°19'0 0.0
2018-Apr-17 00:30N 51°03' E 002°19'0 0.0
2018-Apr-17 00:00N 51°03' E 002°19'0 0.0
2018-Apr-16 23:27N 51°03' E 002°19'0 0.0
2018-Apr-16 22:48N 51°03' E 002°19'0 0.0
2018-Apr-16 22:27N 51°03' E 002°19'0 0.0
2018-Apr-16 21:45N 51°03' E 002°19'0 0.0
2018-Apr-16 21:30N 51°03' E 002°19'0 0.0
2018-Apr-16 20:57N 51°03' E 002°19'0 0.0
2018-Apr-16 20:30N 51°03' E 002°19'0 0.0
2018-Apr-16 19:54N 51°03' E 002°19'0 0.0
2018-Apr-16 19:30N 51°03' E 002°19'0 0.0
2018-Apr-16 19:00N 51°03' E 002°19'0 0.0
2018-Apr-16 18:30N 51°03' E 002°19'0 0.0
2018-Apr-16 17:45N 51°03' E 002°19'0 0.0
2018-Apr-16 17:27N 51°03' E 002°19'0 0.0
2018-Apr-16 17:00N 51°03' E 002°19'0 0.0
2018-Apr-16 16:30N 51°03' E 002°19'0 0.0
2018-Apr-16 15:51N 51°03' E 002°19'0 0.0
2018-Apr-16 15:27N 51°03' E 002°19'0 0.0
2018-Apr-16 15:00N 51°03' E 002°19'0 0.0
2018-Apr-16 14:15N 51°03' E 002°19'0 0.0
2018-Apr-16 12:54N 51°03' E 002°19'0 0.0
2018-Apr-16 12:18N 51°03' E 002°19'0 0.0
2018-Apr-16 11:36N 51°03' E 002°19'0 0.0
2018-Apr-16 11:24N 51°03' E 002°19'0 0.0
2018-Apr-16 10:57N 51°03' E 002°19'0 0.0
2018-Apr-16 10:30N 51°03' E 002°19'0 0.0
2018-Apr-16 09:51N 51°03' E 002°19'0 0.0
2018-Apr-16 09:30N 51°03' E 002°19'0 0.0
2018-Apr-16 09:00N 51°03' E 002°19'0 0.0
2018-Apr-16 08:27N 51°03' E 002°19'0 0.0
2018-Apr-16 07:54N 51°03' E 002°19'0 0.0
2018-Apr-16 07:12N 51°03' E 002°19'0 0.0
2018-Apr-16 06:48N 51°03' E 002°19'0 0.0
2018-Apr-16 06:09N 51°03' E 002°19'0 0.0
2018-Apr-16 05:48N 51°03' E 002°19'0 0.0
2018-Apr-16 05:00N 51°03' E 002°19'0 0.0
2018-Apr-16 04:15N 51°03' E 002°19'0 0.0
2018-Apr-16 02:27N 51°03' E 002°19'0 0.0
2018-Apr-16 02:00N 51°03' E 002°19'0 0.0
2018-Apr-16 01:30N 51°03' E 002°19'0 0.0
2018-Apr-16 00:42N 51°03' E 002°19'0 0.0
2018-Apr-15 23:57N 51°03' E 002°19'0 0.0
2018-Apr-15 23:18N 51°03' E 002°19'0 0.0
2018-Apr-15 23:00N 51°03' E 002°19'0 0.0
2018-Apr-15 21:57N 51°03' E 002°19'0 0.0
2018-Apr-15 21:30N 51°03' E 002°19'0 0.0
2018-Apr-15 19:30N 51°03' E 002°19'0 0.0
2018-Apr-15 19:00N 51°03' E 002°19'0 0.0
2018-Apr-15 18:12N 51°03' E 002°19'0 0.0
2018-Apr-15 17:03N 51°03' E 002°19'0 0.1
2018-Apr-15 17:00N 51°03' E 002°19'0 0.0
2018-Apr-15 16:30N 51°03' E 002°19'0 0.0
2018-Apr-15 15:54N 51°03' E 002°19'0 0.0
2018-Apr-15 15:21N 51°03' E 002°19'1 0.8
2018-Apr-15 13:38N 51°03' E 002°21'0 1.8
2018-Apr-15 13:30N 51°04' E 002°21'2 4.9
2018-Apr-15 13:00N 51°04' E 002°17'4 7.1
2018-Apr-15 12:30N 51°03' E 002°12'4 8.2
2018-Apr-15 11:59N 51°03' E 002°05'613.5
2018-Apr-15 11:30N 51°02' E 001°55'4 7.7
2018-Apr-15 10:58N 51°03' E 001°48'0 0.2
2018-Apr-15 10:30N 51°03' E 001°48'0 0.3
2018-Apr-15 09:54N 51°03' E 001°48'1 1.6
2018-Apr-15 09:30N 51°03' E 001°47'1 2.8
2018-Apr-15 09:00N 51°03' E 001°45'1 2.1
2018-Apr-15 08:30N 51°02' E 001°43'1 2.1
2018-Apr-15 08:00N 51°02' E 001°42'2 3.8
2018-Apr-15 07:25N 51°02' E 001°38'22 6.8
2018-Apr-15 04:11N 50°42' E 001°21'2110.2
2018-Apr-15 02:08N 50°29' E 000°55'310.3
2018-Apr-15 01:52N 50°29' E 000°51'2510.3
2018-Apr-14 23:29N 50°22' E 000°14'4512.3
2018-Apr-14 19:52N 50°10' W 000°53'514.1
2018-Apr-14 19:30N 50°08' W 001°01'714.3
2018-Apr-14 19:00N 50°06' W 001°12'714.2
2018-Apr-14 18:30N 50°05' W 001°22'713.9
2018-Apr-14 18:00N 50°03' W 001°33'713.5
2018-Apr-14 17:31N 50°01' W 001°43'612.8
2018-Apr-14 17:01N 49°59' W 001°53'1611.3
2018-Apr-14 15:36N 49°55' W 002°16'510.0
2018-Apr-14 15:09N 49°54' W 002°23'1 9.8
2018-Apr-14 15:00N 49°54' W 002°25'5 9.4
2018-Apr-14 14:30N 49°52' W 002°32'5 9.1
2018-Apr-14 14:00N 49°51' W 002°39'5 8.9
2018-Apr-14 13:24N 49°50' W 002°47'  
Track history (hours):
 
Tides and Currents Weather Stations Pressure Air Temp Water Temp Dewpoint Dewpoint Depression Visibility Wind Speed Wind Dir Waves Ship Positions

Trans Africa

Last reported at 2018-Apr-20 03:00 UTC. Time now 2018-Apr-20 03:01 UTC.
Position N 51°09' E 003°47'.

Length 229 m; draft 8.8 m.

Type: Cargo ship. MMSI: 248614000.

Date/timePositionNaut miles runAvg speedWind from/ knotsBaromVisibWave heightAir tempDewpointWater temp
2018-Apr-20 03:00N 51°09' E 003°47'0 0.0
2018-Apr-20 02:30N 51°09' E 003°47'0 0.0
2018-Apr-20 02:00N 51°09' E 003°47'0 0.0
2018-Apr-20 01:30N 51°09' E 003°47'0 0.0
2018-Apr-20 01:00N 51°09' E 003°47'0 0.0
2018-Apr-20 00:24N 51°09' E 003°47'0 0.0
2018-Apr-20 00:00N 51°09' E 003°47'0 0.0
2018-Apr-19 23:27N 51°09' E 003°47'0 0.0
2018-Apr-19 22:54N 51°09' E 003°47'0 0.0
2018-Apr-19 22:27N 51°09' E 003°47'0 0.0
2018-Apr-19 22:00N 51°09' E 003°47'0 0.0
2018-Apr-19 21:30N 51°09' E 003°47'0 0.0
2018-Apr-19 20:57N 51°09' E 003°47'0 0.0
2018-Apr-19 20:30N 51°09' E 003°47'0 0.0
2018-Apr-19 20:00N 51°09' E 003°47'0 0.0
2018-Apr-19 19:27N 51°09' E 003°47'0 0.0
2018-Apr-19 18:57N 51°09' E 003°47'0 0.0
2018-Apr-19 18:24N 51°09' E 003°47'0 0.0
2018-Apr-19 17:54N 51°09' E 003°47'0 0.0
2018-Apr-19 17:30N 51°09' E 003°47'0 0.0
2018-Apr-19 16:57N 51°09' E 003°47'0 0.0
2018-Apr-19 16:30N 51°09' E 003°47'0 0.0
2018-Apr-19 16:00N 51°09' E 003°47'0 0.0
2018-Apr-19 15:21N 51°09' E 003°47'0 0.0
2018-Apr-19 14:45N 51°09' E 003°47'0 0.0
2018-Apr-19 14:21N 51°09' E 003°47'0 0.0
2018-Apr-19 13:51N 51°09' E 003°47'0 0.0
2018-Apr-19 13:27N 51°09' E 003°47'0 0.0
2018-Apr-19 12:57N 51°09' E 003°47'0 0.0
2018-Apr-19 12:30N 51°09' E 003°47'0 0.0
2018-Apr-19 12:00N 51°09' E 003°47'0 0.0
2018-Apr-19 11:30N 51°09' E 003°47'0 0.0
2018-Apr-19 11:00N 51°09' E 003°47'0 0.0
2018-Apr-19 10:27N 51°09' E 003°47'0 0.0
2018-Apr-19 10:00N 51°09' E 003°47'0 0.0
2018-Apr-19 09:30N 51°09' E 003°47'0 0.0
2018-Apr-19 09:00N 51°09' E 003°47'0 0.0
2018-Apr-19 08:30N 51°09' E 003°47'0 0.0
2018-Apr-19 08:00N 51°09' E 003°47'0 0.0
2018-Apr-19 07:24N 51°09' E 003°47'0 0.0
2018-Apr-19 07:00N 51°09' E 003°47'0 0.0
2018-Apr-19 06:30N 51°09' E 003°47'0 0.0
2018-Apr-19 06:00N 51°09' E 003°47'0 0.0
2018-Apr-19 05:30N 51°09' E 003°47'0 0.0
2018-Apr-19 05:00N 51°09' E 003°47'0 0.0
2018-Apr-19 04:30N 51°09' E 003°47'0 0.0
2018-Apr-19 04:00N 51°09' E 003°47'0 0.0
2018-Apr-19 03:27N 51°09' E 003°47'0 0.0
2018-Apr-19 03:00N 51°09' E 003°47'0 0.0
2018-Apr-19 02:30N 51°09' E 003°47'0 0.0
2018-Apr-19 02:00N 51°09' E 003°47'0 0.0
2018-Apr-19 01:30N 51°09' E 003°47'0 0.1
2018-Apr-19 01:00N 51°09' E 003°47'1 2.3
2018-Apr-19 00:30N 51°10' E 003°48'3 5.9
2018-Apr-19 00:00N 51°13' E 003°48'3 6.1
2018-Apr-18 23:30N 51°16' E 003°50'3 5.8
2018-Apr-18 23:01N 51°19' E 003°50'1 2.0
2018-Apr-18 22:30N 51°20' E 003°49'0 0.6
2018-Apr-18 22:00N 51°20' E 003°49'0 0.2
2018-Apr-18 21:30N 51°20' E 003°49'2 4.9
2018-Apr-18 21:00N 51°22' E 003°46'5 9.7
2018-Apr-18 20:30N 51°26' E 003°41'5 9.2
2018-Apr-18 20:00N 51°26' E 003°34'3 4.6
2018-Apr-18 19:28N 51°25' E 003°30'4 8.6
2018-Apr-18 19:00N 51°24' E 003°24'5 9.8
2018-Apr-18 18:30N 51°25' E 003°16'510.9
2018-Apr-18 18:00N 51°24' E 003°07'611.2
2018-Apr-18 17:30N 51°23' E 002°58'612.5
2018-Apr-18 17:00N 51°22' E 002°48'510.8
2018-Apr-18 16:30N 51°22' E 002°40'4 7.9
2018-Apr-18 16:00N 51°22' E 002°34'713.1
2018-Apr-18 15:30N 51°20' E 002°24'714.1
2018-Apr-18 15:00N 51°18' E 002°13'714.4
2018-Apr-18 14:30N 51°14' E 002°04'714.7
2018-Apr-18 14:00N 51°10' E 001°54'714.7
2018-Apr-18 13:30N 51°05' E 001°45'510.7
2018-Apr-18 13:00N 51°03' E 001°53'511.0
2018-Apr-18 12:30N 51°03' E 002°02'611.3
2018-Apr-18 11:58N 51°03' E 002°11'511.4
2018-Apr-18 11:30N 51°04' E 002°20'1 1.5
2018-Apr-18 10:59N 51°03' E 002°20'0 0.6
2018-Apr-18 10:30N 51°03' E 002°20'0 0.6
2018-Apr-18 10:00N 51°03' E 002°19'0 0.0
2018-Apr-18 09:21N 51°03' E 002°19'0 0.0
2018-Apr-18 08:54N 51°03' E 002°19'0 0.0
2018-Apr-18 08:15N 51°03' E 002°19'0 0.0
2018-Apr-18 08:00N 51°03' E 002°19'0 0.0
2018-Apr-18 07:30N 51°03' E 002°19'0 0.0
2018-Apr-18 07:00N 51°03' E 002°19'0 0.0
2018-Apr-18 06:15N 51°03' E 002°19'0 0.0
2018-Apr-18 06:00N 51°03' E 002°19'0 0.0
2018-Apr-18 05:18N 51°03' E 002°19'0 0.0
2018-Apr-18 04:21N 51°03' E 002°19'0 0.0
2018-Apr-18 03:54N 51°03' E 002°19'0 0.0
2018-Apr-18 03:21N 51°03' E 002°19'0 0.0
2018-Apr-18 02:57N 51°03' E 002°19'0 0.0
2018-Apr-18 02:24N 51°03' E 002°19'0 0.0
2018-Apr-18 01:45N 51°03' E 002°19'0 0.0
2018-Apr-18 01:24N 51°03' E 002°19'0 0.0
2018-Apr-18 00:51N 51°03' E 002°19'0 0.4
2018-Apr-17 23:36N 51°03' E 002°19'0 0.0
2018-Apr-17 23:28N 51°03' E 002°19'0 0.0
2018-Apr-17 22:55N 51°03' E 002°19'0 0.0
2018-Apr-17 21:45N 51°03' E 002°19'0 0.0
2018-Apr-17 21:12N 51°03' E 002°19'0 0.0
2018-Apr-17 20:48N 51°03' E 002°19'0 0.0
2018-Apr-17 20:18N 51°03' E 002°19'0 0.0
2018-Apr-17 19:45N 51°03' E 002°19'0 0.0
2018-Apr-17 18:54N 51°03' E 002°19'0 0.0
2018-Apr-17 18:30N 51°03' E 002°19'0 0.0
2018-Apr-17 18:00N 51°03' E 002°19'0 0.0
2018-Apr-17 17:30N 51°03' E 002°19'0 0.0
2018-Apr-17 16:21N 51°03' E 002°19'0 0.0
2018-Apr-17 16:00N 51°03' E 002°19'0 0.0
2018-Apr-17 15:13N 51°03' E 002°19'0 0.0
2018-Apr-17 14:54N 51°03' E 002°19'0 0.0
2018-Apr-17 14:30N 51°03' E 002°19'0 0.0
2018-Apr-17 13:48N 51°03' E 002°19'0 0.0
2018-Apr-17 13:24N 51°03' E 002°19'0 0.0
2018-Apr-17 12:54N 51°03' E 002°19'0 0.0
2018-Apr-17 12:24N 51°03' E 002°19'0 0.0
2018-Apr-17 10:27N 51°03' E 002°19'0 0.0
2018-Apr-17 09:58N 51°03' E 002°19'0 0.0
2018-Apr-17 09:30N 51°03' E 002°19'0 0.0
2018-Apr-17 08:54N 51°03' E 002°19'0 0.0
2018-Apr-17 08:27N 51°03' E 002°19'0 0.0
2018-Apr-17 08:00N 51°03' E 002°19'0 0.0
2018-Apr-17 07:21N 51°03' E 002°19'0 0.0
2018-Apr-17 07:00N 51°03' E 002°19'0 0.0
2018-Apr-17 06:30N 51°03' E 002°19'0 0.0
2018-Apr-17 06:00N 51°03' E 002°19'0 0.0
2018-Apr-17 05:24N 51°03' E 002°19'0 0.0
2018-Apr-17 04:48N 51°03' E 002°19'0 0.0
2018-Apr-17 04:30N 51°03' E 002°19'0 0.0
2018-Apr-17 03:00N 51°03' E 002°19'0 0.0
2018-Apr-17 01:54N 51°03' E 002°19'0 0.0
2018-Apr-17 01:24N 51°03' E 002°19'0 0.0
2018-Apr-17 01:00N 51°03' E 002°19'0 0.0
2018-Apr-17 00:30N 51°03' E 002°19'0 0.0
2018-Apr-17 00:00N 51°03' E 002°19'0 0.0
2018-Apr-16 23:27N 51°03' E 002°19'0 0.0
2018-Apr-16 22:48N 51°03' E 002°19'0 0.0
2018-Apr-16 22:27N 51°03' E 002°19'0 0.0
2018-Apr-16 21:45N 51°03' E 002°19'0 0.0
2018-Apr-16 21:30N 51°03' E 002°19'0 0.0
2018-Apr-16 20:57N 51°03' E 002°19'0 0.0
2018-Apr-16 20:30N 51°03' E 002°19'0 0.0
2018-Apr-16 19:54N 51°03' E 002°19'0 0.0
2018-Apr-16 19:30N 51°03' E 002°19'0 0.0
2018-Apr-16 19:00N 51°03' E 002°19'0 0.0
2018-Apr-16 18:30N 51°03' E 002°19'0 0.0
2018-Apr-16 17:45N 51°03' E 002°19'0 0.0
2018-Apr-16 17:27N 51°03' E 002°19'0 0.0
2018-Apr-16 17:00N 51°03' E 002°19'0 0.0
2018-Apr-16 16:30N 51°03' E 002°19'0 0.0
2018-Apr-16 15:51N 51°03' E 002°19'0 0.0
2018-Apr-16 15:27N 51°03' E 002°19'0 0.0
2018-Apr-16 15:00N 51°03' E 002°19'0 0.0
2018-Apr-16 14:15N 51°03' E 002°19'0 0.0
2018-Apr-16 12:54N 51°03' E 002°19'0 0.0
2018-Apr-16 12:18N 51°03' E 002°19'0 0.0
2018-Apr-16 11:36N 51°03' E 002°19'0 0.0
2018-Apr-16 11:24N 51°03' E 002°19'0 0.0
2018-Apr-16 10:57N 51°03' E 002°19'0 0.0
2018-Apr-16 10:30N 51°03' E 002°19'0 0.0
2018-Apr-16 09:51N 51°03' E 002°19'0 0.0
2018-Apr-16 09:30N 51°03' E 002°19'0 0.0
2018-Apr-16 09:00N 51°03' E 002°19'0 0.0
2018-Apr-16 08:27N 51°03' E 002°19'0 0.0
2018-Apr-16 07:54N 51°03' E 002°19'0 0.0
2018-Apr-16 07:12N 51°03' E 002°19'0 0.0
2018-Apr-16 06:48N 51°03' E 002°19'0 0.0
2018-Apr-16 06:09N 51°03' E 002°19'0 0.0
2018-Apr-16 05:48N 51°03' E 002°19'0 0.0
2018-Apr-16 05:00N 51°03' E 002°19'0 0.0
2018-Apr-16 04:15N 51°03' E 002°19'0 0.0
2018-Apr-16 02:27N 51°03' E 002°19'0 0.0
2018-Apr-16 02:00N 51°03' E 002°19'0 0.0
2018-Apr-16 01:30N 51°03' E 002°19'0 0.0
2018-Apr-16 00:42N 51°03' E 002°19'0 0.0
2018-Apr-15 23:57N 51°03' E 002°19'0 0.0
2018-Apr-15 23:18N 51°03' E 002°19'0 0.0
2018-Apr-15 23:00N 51°03' E 002°19'0 0.0
2018-Apr-15 21:57N 51°03' E 002°19'0 0.0
2018-Apr-15 21:30N 51°03' E 002°19'0 0.0
2018-Apr-15 19:30N 51°03' E 002°19'0 0.0
2018-Apr-15 19:00N 51°03' E 002°19'0 0.0
2018-Apr-15 18:12N 51°03' E 002°19'0 0.0
2018-Apr-15 17:03N 51°03' E 002°19'0 0.1
2018-Apr-15 17:00N 51°03' E 002°19'0 0.0
2018-Apr-15 16:30N 51°03' E 002°19'0 0.0
2018-Apr-15 15:54N 51°03' E 002°19'0 0.0
2018-Apr-15 15:21N 51°03' E 002°19'1 0.8
2018-Apr-15 13:38N 51°03' E 002°21'0 1.8
2018-Apr-15 13:30N 51°04' E 002°21'2 4.9
2018-Apr-15 13:00N 51°04' E 002°17'4 7.1
2018-Apr-15 12:30N 51°03' E 002°12'4 8.2
2018-Apr-15 11:59N 51°03' E 002°05'613.5
2018-Apr-15 11:30N 51°02' E 001°55'4 7.7
2018-Apr-15 10:58N 51°03' E 001°48'0 0.2
2018-Apr-15 10:30N 51°03' E 001°48'0 0.3
2018-Apr-15 09:54N 51°03' E 001°48'1 1.6
2018-Apr-15 09:30N 51°03' E 001°47'1 2.8
2018-Apr-15 09:00N 51°03' E 001°45'1 2.1
2018-Apr-15 08:30N 51°02' E 001°43'1 2.1
2018-Apr-15 08:00N 51°02' E 001°42'2 3.8
2018-Apr-15 07:25N 51°02' E 001°38'22 6.8
2018-Apr-15 04:11N 50°42' E 001°21'2110.2
2018-Apr-15 02:08N 50°29' E 000°55'310.3
2018-Apr-15 01:52N 50°29' E 000°51'2510.3
2018-Apr-14 23:29N 50°22' E 000°14'4512.3
2018-Apr-14 19:52N 50°10' W 000°53'514.1
2018-Apr-14 19:30N 50°08' W 001°01'714.3
2018-Apr-14 19:00N 50°06' W 001°12'714.2
2018-Apr-14 18:30N 50°05' W 001°22'713.9
2018-Apr-14 18:00N 50°03' W 001°33'713.5
2018-Apr-14 17:31N 50°01' W 001°43'612.8
2018-Apr-14 17:01N 49°59' W 001°53'1611.3
2018-Apr-14 15:36N 49°55' W 002°16'510.0
2018-Apr-14 15:09N 49°54' W 002°23'1 9.8
2018-Apr-14 15:00N 49°54' W 002°25'5 9.4
2018-Apr-14 14:30N 49°52' W 002°32'5 9.1
2018-Apr-14 14:00N 49°51' W 002°39'5 8.9
2018-Apr-14 13:24N 49°50' W 002°47'  

Dump ship's entire track history